Commit graph

23 commits

Author SHA1 Message Date
8dbe4b7ab8 projects: typograf 2026-04-16 01:24:15 +02:00
f6f3934528 projects: typo 2026-03-15 22:31:02 +01:00
fd796c82a4 Update titles 2025-08-31 02:28:56 +02:00
6bd1b011f5 Update titles 2025-08-31 01:22:29 +02:00
844ece8a90 css: apply styles for entries 2025-08-23 17:23:07 +02:00
8a292009ae projects: apply common styles 2025-08-23 14:42:16 +02:00
099430b62e projects: linting 2025-08-23 08:02:39 +02:00
856fd24869 projects: linting 2025-08-23 07:59:41 +02:00
bccd7b3ef5 projects: update markup 2025-08-23 07:53:38 +02:00
39de9a3477 projects: add ddp and simpleSpaceApi 2025-08-23 07:37:07 +02:00
4567ff258b convention: period in the descriptions 2025-05-08 06:02:56 +02:00
a008fc14d6 projects: add cantor mx 2024-09-04 23:01:13 +02:00
61a276b7fd projects: add desolate-gtk 2024-08-12 21:58:01 +02:00
6d67d3987a projects: fixup hr position 2024-08-05 06:08:05 +02:00
3c314edfc4 projects: update bwc description 2024-07-25 01:41:29 +02:00
04448751e1 projects: update conky description 2024-07-17 08:38:10 +02:00
3289c20653 projects: add settings section 2024-07-17 08:35:53 +02:00
b1ff018ac5 projects: add fuzzy-bitwarden-clipboard 2024-07-17 08:32:46 +02:00
7ae8bdd9f7 projects: add tabswitcher 2024-01-26 14:29:26 +01:00
c006e3cc78 projects: fix up links 2024-01-15 00:48:55 +01:00
097926b161 projects: typograph 2024-01-15 00:04:39 +01:00
788bc1d9cd projects: initial list 2024-01-14 21:54:29 +01:00
6a36004011 unifiy address format 2023-12-10 19:01:42 +01:00